ADDS METAR Data INFO
IDs: Format: Raw Decoded Include TAF

Data at: 0608 UTC 25 Jun 2018

KTYR 250553Z AUTO 16011KT 10SM CLR 27/22 A2991 RMK AO2 SLP120 T02720222 10339 20272 403560256 51003
KTYR 250453Z AUTO 16010KT 10SM CLR 28/22 A2991 RMK AO2 SLP119 T02780222
KTYR 250353Z AUTO 16008KT 10SM CLR 28/22 A2991 RMK AO2 SLP119 T02830222
KTYR 250253Z AUTO 16008KT 10SM CLR 30/22 A2990 RMK AO2 SLP117 T03000222 53006
KTYR 250153Z 16004KT 10SM CLR 31/22 A2989 RMK AO2 SLP112 T03110217
KTYR 250053Z 17005KT 10SM FEW070 33/21 A2989 RMK AO2 SLP112 T03330211
KTYR 242353Z 19009KT 10SM CLR 34/21 A2988 RMK AO2 SLP111 T03390206 10356 20322 53006
KTYR 242253Z 19010G19KT 10SM CLR 35/21 A2987 RMK AO2 SLP105 T03500206
KTYR 242153Z 18015KT 10SM CLR 35/20 A2986 RMK AO2 SLP104 T03500200
KTYR 242053Z 16011G19KT 10SM SCT050 35/21 A2987 RMK AO2 SLP105 T03500206 58015
KTYR 241953Z 18015KT 10SM FEW050 SCT060 33/20 A2988 RMK AO2 SLP109 T03330200
KTYR 241853Z 20013KT 10SM FEW046 SCT055 33/20 A2990 RMK AO2 SLP116 T03330200
KTYR 241753Z 20011KT 10SM BKN041 BKN048 32/21 A2991 RMK AO2 SLP120 T03170206 10322 20261 58004
KTYR 241653Z 19012KT 10SM SCT030 32/22 A2992 RMK AO2 SLP122 T03170217
KTYR 241553Z 19013G18KT 10SM CLR 31/22 A2994 RMK AO2 SLP128 T03110217
KTYR 241453Z 20013KT 10SM FEW030 BKN041 29/23 A2992 RMK AO2 LTG DSNT N SLP124 T02890228 51035
KTYR 241429Z 20013KT 10SM SCT026 SCT030 OVC041 28/23 A2993 RMK AO2 T02830228
KTYR 241353Z 20012KT 10SM SCT022 BKN028 BKN034 28/23 A2991 RMK AO2 SLP121 T02830233
KTYR 241338Z 21016G20KT 10SM SCT020 BKN030 BKN034 28/23 A2990 RMK AO2 T02780233
KTYR 241253Z 20014G20KT 10SM BKN017 OVC023 27/23 A2988 RMK AO2 PRESRR SLP111 T02670233
KTYR 241204Z 18017G24KT 10SM BKN018 26/23 A2982 RMK AO2 T02610233
KTYR 241153Z 19013G24KT 10SM SCT016 26/23 A2982 RMK AO2 PK WND 17028/1108 SLP089 T02610233 10278 20256 55000
KTYR 241138Z 18015G25KT 10SM SCT018 26/23 A2981 RMK AO2 PK WND 17028/1108 T02560233
KTYR 241116Z 18017G28KT 10SM BKN018 26/23 A2981 RMK AO2 PK WND 17028/1108 T02610233
KTYR 241053Z AUTO 18018G24KT 10SM FEW018 26/23 A2981 RMK AO2 PK WND 17033/1028 PRESRR SLP086 T02610233
KTYR 240953Z AUTO 17017G25KT 10SM FEW017 26/24 A2980 RMK AO2 SLP081 T02610239
KTYR 240853Z AUTO 17015G24KT 10SM CLR 26/24 A2982 RMK AO2 SLP089 T02610239 58016
KTYR 240816Z AUTO 18015G21KT 10SM SCT020 27/24 A2985 RMK AO2 T02670239
KTYR 240753Z AUTO 19015KT 10SM SCT021 BKN027 27/24 A2987 RMK AO2 SLP106 T02670239
KTYR 240721Z AUTO 18017G21KT 10SM SCT019 SCT024 BKN032 27/24 A2987 RMK AO2 T02670239
KTYR 240714Z AUTO 18013KT 10SM BKN019 BKN032 27/24 A2988 RMK AO2 T02670239
KTYR 240653Z AUTO 18012G21KT 10SM FEW018 27/24 A2987 RMK AO2 SLP106 T02720239
KTYR 240634Z AUTO 18014KT 10SM SCT023 27/24 A2986 RMK AO2 T02720244
KTYR 240618Z AUTO 18014KT 10SM BKN023 BKN035 27/24 A2986 RMK AO2 T02720244
KTYR 240553Z AUTO 18011KT 10SM FEW027 SCT035 28/24 A2987 RMK AO2 SLP105 T02780244 10333 20278 403440250 51024
KTYR 240453Z AUTO 18009KT 10SM CLR 28/24 A2985 RMK AO2 SLP100 T02830244
KTYR 240353Z AUTO 17010KT 10SM CLR 29/23 A2982 RMK AO2 SLP089 T02890233
KTYR 240253Z AUTO 16006KT 10SM CLR 29/22 A2979 RMK AO2 SLP080 T02890222 53006
KTYR 240153Z 17003KT 10SM CLR 30/21 A2978 RMK AO2 SLP075 T03000211
KTYR 240053Z 18006KT 10SM CLR 32/21 A2978 RMK AO2 SLP074 T03170206
KTYR 232353Z 17009KT 10SM CLR 33/20 A2978 RMK AO2 SLP075 T03330200 10344 20317 56012
KTYR 232253Z 19011KT 10SM CLR 34/19 A2979 RMK AO2 SLP077 T03390194
KTYR 232153Z 19010KT 10SM CLR 34/19 A2980 RMK AO2 SLP082 T03440189
KTYR 232053Z 18012G20KT 150V220 10SM CLR 34/21 A2981 RMK AO2 SLP086 T03390211 56023
KTYR 231953Z 16013G19KT 10SM FEW043 33/21 A2983 RMK AO2 SLP092 T03330211
KTYR 231853Z 18009KT 10SM FEW037 33/22 A2985 RMK AO2 SLP100 T03330217